createdAt,value
2018-10-11T00:03:35.799Z,4.63
2018-10-11T00:08:39.064Z,4.20
2018-10-11T00:13:42.333Z,4.53
2018-10-11T00:18:45.601Z,4.87
2018-10-11T00:23:48.876Z,4.80
2018-10-11T00:28:52.183Z,5.28
2018-10-11T00:33:55.457Z,4.80
2018-10-11T00:38:58.728Z,4.60
2018-10-11T00:44:02.002Z,4.60
2018-10-11T00:49:05.293Z,5.23
2018-10-11T00:54:08.899Z,4.30
2018-10-11T00:59:12.520Z,4.97
2018-10-11T01:04:15.889Z,5.22
2018-10-11T01:09:19.230Z,4.75
2018-10-11T01:14:22.475Z,5.20
2018-10-11T01:19:25.752Z,5.53
2018-10-11T01:24:29.033Z,5.25
2018-10-11T01:29:32.320Z,4.60
2018-10-11T01:34:35.587Z,4.83
2018-10-11T01:39:38.866Z,5.17
2018-10-11T01:44:42.132Z,4.33
2018-10-11T01:49:45.391Z,4.70
2018-10-11T01:54:48.664Z,4.80
2018-10-11T01:59:51.932Z,4.50
2018-10-11T02:04:55.195Z,5.37
2018-10-11T02:09:58.473Z,4.50
2018-10-11T02:15:01.740Z,4.60
2018-10-11T02:20:06.057Z,4.55
2018-10-11T02:25:09.770Z,4.60
2018-10-11T02:30:13.652Z,5.10
2018-10-11T02:35:16.909Z,4.47
2018-10-11T02:40:20.191Z,4.63
2018-10-11T02:45:23.535Z,4.87
2018-10-11T02:50:26.799Z,4.90
2018-10-11T02:55:30.180Z,4.77
2018-10-11T03:00:34.313Z,5.03
2018-10-11T03:05:39.423Z,5.20
2018-10-11T03:10:42.703Z,4.90
2018-10-11T03:15:45.973Z,4.95
2018-10-11T03:20:49.240Z,5.12
2018-10-11T03:25:52.500Z,4.72
2018-10-11T03:30:55.880Z,4.83
2018-10-11T03:35:59.139Z,5.20
2018-10-11T03:41:02.504Z,4.60
2018-10-11T03:46:05.763Z,4.53
2018-10-11T03:51:09.029Z,5.15
2018-10-11T03:56:12.305Z,4.35
2018-10-11T04:01:15.572Z,4.83
2018-10-11T04:06:18.918Z,5.00
2018-10-11T04:11:22.181Z,4.33
2018-10-11T04:16:25.492Z,4.50
2018-10-11T04:21:28.916Z,4.28
2018-10-11T04:26:32.204Z,4.05
2018-10-11T04:31:35.499Z,4.40
2018-10-11T04:36:38.796Z,4.20
2018-10-11T04:41:42.301Z,4.85
2018-10-11T04:46:45.568Z,4.72
2018-10-11T04:51:48.855Z,4.00
2018-10-11T04:56:52.116Z,4.28
2018-10-11T05:01:56.224Z,4.53
2018-10-11T05:06:59.528Z,4.30
2018-10-11T05:12:02.804Z,4.30
2018-10-11T05:17:06.098Z,4.40
2018-10-11T05:22:09.372Z,4.25
2018-10-11T05:27:12.661Z,4.47
2018-10-11T05:32:15.974Z,4.83
2018-10-11T05:37:19.227Z,5.28
2018-10-11T05:42:22.512Z,4.62
2018-10-11T05:47:25.800Z,5.20
2018-10-11T05:52:29.080Z,5.42
2018-10-11T05:57:32.360Z,5.53
2018-10-11T06:02:36.468Z,5.28
2018-10-11T06:07:39.755Z,5.97
2018-10-11T06:12:43.492Z,5.35
2018-10-11T06:17:46.811Z,4.83
2018-10-11T06:22:50.107Z,5.28
2018-10-11T06:27:53.376Z,5.35
2018-10-11T06:32:56.852Z,4.92
2018-10-11T06:38:00.533Z,5.33
2018-10-11T06:43:03.835Z,5.13
2018-10-11T06:48:08.823Z,5.37
2018-10-11T06:53:12.399Z,5.60
2018-10-11T06:58:15.685Z,5.00
2018-10-11T07:03:18.992Z,5.53
2018-10-11T07:08:22.621Z,5.75
2018-10-11T07:13:25.900Z,5.10
2018-10-11T07:18:29.161Z,6.45
2018-10-11T07:23:32.444Z,6.90
2018-10-11T07:28:35.729Z,7.63
2018-10-11T07:33:39.013Z,8.07
2018-10-11T07:38:42.302Z,8.53
2018-10-11T07:43:45.615Z,6.83
2018-10-11T07:48:48.886Z,7.83
2018-10-11T07:53:52.165Z,7.50
2018-10-11T07:58:55.460Z,7.63
2018-10-11T08:03:59.128Z,7.03
2018-10-11T08:09:02.509Z,7.07
2018-10-11T08:14:06.007Z,7.40
2018-10-11T08:19:09.768Z,6.73
2018-10-11T08:24:12.906Z,6.47
2018-10-11T08:29:16.401Z,6.83
2018-10-11T08:34:19.684Z,7.37
2018-10-11T08:39:23.118Z,6.33
2018-10-11T08:44:26.388Z,6.53
2018-10-11T08:49:29.655Z,6.43
2018-10-11T08:54:38.391Z,6.30
2018-10-11T08:59:41.795Z,6.17
2018-10-11T09:04:45.564Z,6.80
2018-10-11T09:09:53.562Z,6.80
2018-10-11T09:14:52.125Z,6.77
2018-10-11T09:19:55.401Z,7.17
2018-10-11T09:24:58.679Z,6.58
2018-10-11T09:30:01.961Z,6.70
2018-10-11T09:35:06.074Z,6.74
2018-10-11T09:40:09.711Z,7.10
2018-10-11T09:45:12.982Z,6.90
2018-10-11T09:50:16.284Z,6.80
2018-10-11T09:55:19.548Z,7.12
2018-10-11T10:00:28.144Z,5.80
2018-10-11T10:05:31.417Z,6.28
2018-10-11T10:10:34.755Z,6.30
2018-10-11T10:15:38.055Z,6.63
2018-10-11T10:20:41.331Z,5.87
2018-10-11T10:25:44.616Z,6.50
2018-10-11T10:30:53.994Z,6.47
2018-10-11T10:35:57.281Z,6.45
2018-10-11T10:41:00.558Z,6.33
2018-10-11T10:46:04.773Z,6.33
2018-10-11T10:51:08.793Z,6.90
2018-10-11T10:56:12.074Z,6.50
2018-10-11T11:01:15.357Z,7.33
2018-10-11T11:06:19.104Z,6.50
2018-10-11T11:11:22.360Z,6.25
2018-10-11T11:16:25.628Z,6.87
2018-10-11T11:21:29.273Z,5.97
2018-10-11T11:26:32.556Z,6.50
2018-10-11T11:31:34.866Z,6.58
2018-10-11T11:36:38.135Z,5.85
2018-10-11T11:41:41.406Z,6.70
2018-10-11T11:46:44.684Z,6.87
2018-10-11T11:51:47.947Z,6.40
2018-10-11T11:56:52.011Z,6.12
2018-10-11T12:01:55.525Z,6.60
2018-10-11T12:06:59.081Z,6.10
2018-10-11T12:12:02.513Z,5.30
2018-10-11T12:17:05.926Z,5.78
2018-10-11T12:22:09.281Z,5.70
2018-10-11T12:27:12.511Z,6.60
2018-10-11T12:32:15.768Z,5.97
2018-10-11T12:37:19.057Z,5.83
2018-10-11T12:42:22.381Z,6.10
2018-10-11T12:47:25.632Z,5.92
2018-10-11T12:52:28.897Z,5.67
2018-10-11T12:57:32.228Z,6.45
2018-10-11T13:02:35.455Z,5.90
2018-10-11T13:07:38.872Z,6.08
2018-10-11T13:12:42.145Z,5.55
2018-10-11T13:17:45.408Z,5.80
2018-10-11T13:22:48.759Z,5.37
2018-10-11T13:27:51.989Z,5.85
2018-10-11T13:32:55.262Z,6.70
2018-10-11T13:37:58.539Z,5.95
2018-10-11T13:43:01.804Z,5.55
2018-10-11T13:48:05.076Z,5.28
2018-10-11T13:53:08.464Z,5.95
2018-10-11T13:58:11.664Z,6.27
2018-10-11T14:03:14.936Z,5.37
2018-10-11T14:08:18.215Z,6.67
2018-10-11T14:13:21.612Z,5.28
2018-10-11T14:18:24.884Z,5.00
2018-10-11T14:23:28.447Z,5.15
2018-10-11T14:28:31.788Z,5.78
2018-10-11T14:33:35.056Z,5.30
2018-10-11T14:38:38.332Z,5.80
2018-10-11T14:43:41.610Z,5.05
2018-10-11T14:48:45.597Z,5.72
2018-10-11T14:53:52.780Z,5.70
2018-10-11T14:58:52.264Z,6.23
2018-10-11T15:03:55.533Z,5.40
2018-10-11T15:08:58.887Z,5.55
2018-10-11T15:14:02.171Z,5.60
2018-10-11T15:19:05.462Z,5.70
2018-10-11T15:24:09.126Z,5.58
2018-10-11T15:29:13.167Z,5.95
2018-10-11T15:34:16.542Z,6.03
2018-10-11T15:39:19.885Z,6.40
2018-10-11T15:44:23.171Z,5.95
2018-10-11T15:49:26.432Z,6.50
2018-10-11T15:54:29.700Z,6.15
2018-10-11T15:59:32.968Z,6.05
2018-10-11T16:04:36.257Z,6.10
2018-10-11T16:09:39.981Z,10.95
2018-10-11T16:14:43.520Z,16.75
2018-10-11T16:19:46.788Z,20.72
2018-10-11T16:24:50.432Z,22.50
2018-10-11T16:29:53.665Z,24.30
2018-10-11T16:34:57.584Z,22.82
2018-10-11T16:40:00.954Z,23.38
2018-10-11T16:45:04.289Z,21.00
2018-10-11T16:50:07.764Z,21.35
2018-10-11T16:55:11.301Z,21.77
2018-10-11T17:00:14.596Z,20.10
2018-10-11T17:05:17.908Z,19.47
2018-10-11T17:10:21.223Z,19.77
2018-10-11T17:15:24.540Z,17.67
2018-10-11T17:20:27.836Z,17.73
2018-10-11T17:25:31.725Z,17.70
2018-10-11T17:30:35.072Z,17.85
2018-10-11T17:35:38.403Z,17.57
2018-10-11T17:40:41.705Z,15.95
2018-10-11T17:45:44.963Z,15.80
2018-10-11T17:50:48.329Z,16.20
2018-10-11T17:55:51.614Z,16.73
2018-10-11T18:00:54.900Z,14.58
2018-10-11T18:05:58.171Z,17.20
2018-10-11T18:11:01.441Z,18.10
2018-10-11T18:16:04.793Z,15.98
2018-10-11T18:46:23.203Z,13.30
2018-10-11T18:51:26.568Z,13.30
2018-10-11T18:56:29.872Z,12.63
2018-10-11T19:01:33.273Z,13.85
2018-10-11T19:06:36.668Z,12.68
2018-10-11T19:11:40.134Z,13.05
2018-10-11T19:16:43.483Z,13.00
2018-10-11T19:21:46.769Z,11.28
2018-10-11T19:26:50.066Z,12.95
2018-10-11T19:31:53.764Z,12.07
2018-10-11T19:36:57.040Z,11.25
2018-10-11T19:42:00.337Z,12.25
2018-10-11T19:47:03.625Z,11.57
2018-10-11T19:52:07.256Z,11.43
2018-10-11T19:57:10.715Z,11.12
2018-10-11T20:02:13.987Z,12.13
2018-10-11T20:07:17.259Z,11.20
2018-10-11T20:12:20.544Z,10.82
2018-10-11T20:17:23.893Z,10.53
2018-10-11T20:22:27.385Z,10.05
2018-10-11T20:27:31.159Z,11.12
2018-10-11T20:32:34.782Z,10.30
2018-10-11T20:37:38.068Z,10.05
2018-10-11T20:42:41.378Z,10.15
2018-10-11T20:47:44.661Z,10.30
2018-10-11T20:52:47.939Z,9.20
2018-10-11T20:57:51.207Z,9.88
2018-10-11T21:02:54.472Z,9.10
2018-10-11T21:07:57.744Z,10.63
2018-10-11T21:13:01.021Z,9.58
2018-10-11T21:18:04.365Z,9.85
2018-10-11T21:23:07.627Z,9.43
2018-10-11T21:28:10.939Z,9.33
2018-10-11T21:33:14.216Z,8.90
2018-10-11T21:38:17.760Z,9.68
2018-10-11T21:43:21.035Z,9.23
2018-10-11T21:48:24.304Z,10.40
2018-10-11T21:53:27.662Z,9.30
2018-10-11T21:58:30.946Z,9.05
2018-10-11T22:03:34.267Z,8.65
2018-10-11T22:08:37.656Z,8.83
2018-10-11T22:13:41.156Z,9.40
2018-10-11T22:18:44.469Z,8.18
2018-10-11T22:23:47.748Z,8.80
2018-10-11T22:28:51.019Z,9.25
2018-10-11T22:33:54.386Z,8.58
2018-10-11T22:38:57.818Z,8.83
2018-10-11T22:44:01.108Z,7.80
2018-10-11T22:49:04.489Z,7.90
2018-10-11T22:54:08.354Z,8.68
2018-10-11T22:59:11.640Z,9.30
2018-10-11T23:04:14.908Z,8.40
2018-10-11T23:09:18.188Z,8.45
2018-10-11T23:14:21.455Z,7.92
2018-10-11T23:19:24.719Z,7.45
2018-10-11T23:24:27.984Z,7.70
2018-10-11T23:29:31.260Z,7.78
2018-10-11T23:34:34.523Z,7.85
2018-10-11T23:39:37.796Z,9.33
2018-10-11T23:44:41.077Z,7.22
2018-10-11T23:49:44.356Z,7.70
2018-10-11T23:54:47.741Z,7.40
2018-10-11T23:59:51.016Z,7.70
